الصفحة الرئيسية
METAR-TAF:

METAR-TAF

مطار :

سراييفو, البوسنة والهرسك

دائرة عرض: 43-49N, خط طول: 018-20E, ارتفاع: 511 متر

مراقبة الطقس الحالي

تاريخ ووقت الإصدار 3ساعات و 8 دقيقة قبل الساعة 14:30UTC
ريح 2 عقدةمن اتجاهات متغيرة
درجة الحرارة 2°درجة مئوية
الرطوبة 64%
ضغط 1017 hPa
الرؤية 10 كم أو أكثر
غيوم مفككة على ارتفاع 3500 قدم

METAR: LQSA 011430Z VRB02KT 9999 BKN035 02/M04 Q1017 NOSIG

زمن: 19:38 (17:38 UTC)

توقعات

تاريخ ووقت الإصدار 6ساعات و 38 دقيقة قبل الساعة 11:00UTC
التوقعات صالحة من01 الساعة 12 UTC إلى 02 الساعة 12 UTC
ريح 5 عقدة من الغرب/الشمال الغربي
الرؤية 10 كم أو أكثر
غيوم متفرقة على ارتفاع 4500 قدم

TAF: LQSA 011100Z 0112/0212 30005KT 9999 SCT045 TX09/0212Z TNM05/0204Z

أرصاد الطقس والتوقعات من أكثر من 4000 مطار (تقارير الطقس للمطار METAR والتنبؤ بالطقس بالمطارTAF).

المحطات المتاحة هي النقط الصفراء والحمراء على الخريطة.

حرك المؤشر فوق النقطة لمعرفة اسم المحطة.

ثم انقر لمعرفة أرصاد وتوقعات الطقس.

لتغيير الخارطة: اضغط على الأزرار الخضراء مع رمز الصليب الأسود للتكبير. على الزر الأخضر مع شرطة للتصغير، أو على الأسهم الخضراء للخرائط المجاورة.


METAR-TAF: